ICE3VG EKVG-BIAR
Flight info
| Callsign | ICE3VG |
|---|---|
| Flight time | 1h 6m |
| Altitude | 34000 |
| Route | MY DCT MAMEP MAMEP1N |
| Aircraft | B763/H-SDE3FGHIM3RWXY/LB1 |
Departure
| Time | 2026-04-27 13:52 |
|---|---|
| Airport | Vágar Airport (EKVG) |
Arrival
| Time | 2026-04-27 14:59 |
|---|---|
| Airport | Akureyri International Airport (BIAR) |
| Time | Latitude | Longitude | Altitude | Speed | Heading |
|---|---|---|---|---|---|
| 2026-04-27 13:40 | 62.06585 | -7.27947 | 284 ft | 0 kts | 39° |
| 2026-04-27 13:44 | 62.06585 | -7.27945 | 284 ft | 1 kts | 38° |
| 2026-04-27 13:44 | 62.06590 | -7.27938 | 285 ft | 0 kts | 38° |
| 2026-04-27 13:45 | 62.06603 | -7.27916 | 286 ft | 6 kts | 38° |
| 2026-04-27 13:45 | 62.06625 | -7.27902 | 287 ft | 4 kts | 346° |
| 2026-04-27 13:45 | 62.06650 | -7.27987 | 287 ft | 11 kts | 284° |
| 2026-04-27 13:45 | 62.06637 | -7.28075 | 290 ft | 6 kts | 203° |
| 2026-04-27 13:46 | 62.06581 | -7.28094 | 286 ft | 6 kts | 186° |
| 2026-04-27 13:46 | 62.06576 | -7.28095 | 286 ft | 0 kts | 188° |
| 2026-04-27 13:48 | 62.06575 | -7.28095 | 286 ft | 1 kts | 189° |
| 2026-04-27 13:48 | 62.06539 | -7.28117 | 290 ft | 9 kts | 198° |
| 2026-04-27 13:49 | 62.06480 | -7.28143 | 288 ft | 11 kts | 161° |
| 2026-04-27 13:49 | 62.06388 | -7.27840 | 297 ft | 35 kts | 118° |
| 2026-04-27 13:49 | 62.06263 | -7.27334 | 294 ft | 41 kts | 118° |
| 2026-04-27 13:49 | 62.06130 | -7.26799 | 274 ft | 39 kts | 118° |
| 2026-04-27 13:50 | 62.06020 | -7.26359 | 258 ft | 27 kts | 118° |
| 2026-04-27 13:50 | 62.05961 | -7.26105 | 250 ft | 13 kts | 98° |
| 2026-04-27 13:50 | 62.05951 | -7.26020 | 247 ft | 2 kts | 125° |
| 2026-04-27 13:50 | 62.05936 | -7.26014 | 247 ft | 3 kts | 206° |
| 2026-04-27 13:51 | 62.05934 | -7.26045 | 247 ft | 3 kts | 304° |
| 2026-04-27 13:51 | 62.05950 | -7.26079 | 248 ft | 1 kts | 302° |
| 2026-04-27 13:51 | 62.05950 | -7.26080 | 248 ft | 0 kts | 301° |
| 2026-04-27 13:51 | 62.05985 | -7.26213 | 253 ft | 38 kts | 297° |
| 2026-04-27 13:52 | 62.06230 | -7.27198 | 286 ft | 113 kts | 298° |
| 2026-04-27 13:52 | 62.06729 | -7.29153 | 336 ft | 179 kts | 298° |
| 2026-04-27 13:52 | 62.07370 | -7.31577 | 1224 ft | 186 kts | 296° |
| 2026-04-27 13:52 | 62.08201 | -7.33519 | 2744 ft | 172 kts | 315° |
| 2026-04-27 13:53 | 62.10039 | -7.36791 | 4896 ft | 176 kts | 316° |
| 2026-04-27 13:53 | 62.10987 | -7.38527 | 5836 ft | 179 kts | 314° |
| 2026-04-27 13:53 | 62.11824 | -7.40434 | 6790 ft | 178 kts | 309° |
| 2026-04-27 13:54 | 62.12639 | -7.42403 | 7791 ft | 174 kts | 310° |
| 2026-04-27 13:54 | 62.13469 | -7.44272 | 8662 ft | 177 kts | 312° |
| 2026-04-27 13:54 | 62.14392 | -7.46181 | 9268 ft | 195 kts | 315° |
| 2026-04-27 13:54 | 62.15453 | -7.48142 | 9941 ft | 207 kts | 317° |
| 2026-04-27 13:55 | 62.16583 | -7.50158 | 10666 ft | 218 kts | 318° |
| 2026-04-27 13:55 | 62.17812 | -7.52334 | 11108 ft | 239 kts | 318° |
| 2026-04-27 13:55 | 62.19137 | -7.54670 | 11658 ft | 255 kts | 319° |
| 2026-04-27 13:55 | 62.20548 | -7.57150 | 12188 ft | 270 kts | 319° |
| 2026-04-27 13:56 | 62.22040 | -7.59772 | 12707 ft | 284 kts | 319° |
| 2026-04-27 13:56 | 62.23613 | -7.62536 | 13201 ft | 303 kts | 319° |
| 2026-04-27 13:56 | 62.25291 | -7.65489 | 13752 ft | 320 kts | 319° |
| 2026-04-27 13:56 | 62.27045 | -7.68580 | 14392 ft | 333 kts | 319° |
| 2026-04-27 13:57 | 62.28866 | -7.71790 | 14982 ft | 344 kts | 319° |
| 2026-04-27 13:57 | 62.30741 | -7.75098 | 15581 ft | 354 kts | 319° |
| 2026-04-27 13:57 | 62.32665 | -7.78491 | 16188 ft | 362 kts | 319° |
| 2026-04-27 13:57 | 62.34630 | -7.81965 | 16807 ft | 369 kts | 319° |
| 2026-04-27 13:58 | 62.36632 | -7.85513 | 17439 ft | 375 kts | 319° |
| 2026-04-27 13:58 | 62.38657 | -7.89108 | 18127 ft | 378 kts | 319° |
| 2026-04-27 13:58 | 62.40690 | -7.92724 | 18837 ft | 380 kts | 319° |
| 2026-04-27 13:58 | 62.42729 | -7.96357 | 19477 ft | 382 kts | 319° |
| 2026-04-27 13:59 | 62.44786 | -8.00032 | 20137 ft | 382 kts | 319° |
| 2026-04-27 13:59 | 62.46837 | -8.03703 | 20818 ft | 383 kts | 319° |
| 2026-04-27 13:59 | 62.48891 | -8.07385 | 21514 ft | 383 kts | 319° |
| 2026-04-27 13:59 | 62.50940 | -8.11064 | 22225 ft | 383 kts | 319° |
| 2026-04-27 14:00 | 62.52988 | -8.14749 | 22943 ft | 382 kts | 319° |
| 2026-04-27 14:00 | 62.55029 | -8.18431 | 23687 ft | 382 kts | 319° |
| 2026-04-27 14:00 | 62.57067 | -8.22113 | 24357 ft | 380 kts | 319° |
| 2026-04-27 14:00 | 62.59099 | -8.25789 | 25020 ft | 379 kts | 319° |
| 2026-04-27 14:01 | 62.61119 | -8.29437 | 25678 ft | 377 kts | 319° |
| 2026-04-27 14:01 | 62.63129 | -8.33082 | 26357 ft | 374 kts | 319° |
| 2026-04-27 14:01 | 62.65116 | -8.36694 | 27035 ft | 371 kts | 319° |
| 2026-04-27 14:01 | 62.67065 | -8.40244 | 27744 ft | 368 kts | 319° |
| 2026-04-27 14:02 | 62.69043 | -8.43854 | 28484 ft | 364 kts | 319° |
| 2026-04-27 14:02 | 62.70947 | -8.47335 | 29225 ft | 360 kts | 319° |
| 2026-04-27 14:02 | 62.72856 | -8.50831 | 29873 ft | 359 kts | 319° |
| 2026-04-27 14:02 | 62.74784 | -8.54372 | 30133 ft | 366 kts | 319° |
| 2026-04-27 14:03 | 62.76744 | -8.57976 | 30237 ft | 370 kts | 319° |
| 2026-04-27 14:03 | 62.80734 | -8.65334 | 30307 ft | 380 kts | 319° |
| 2026-04-27 14:04 | 62.84814 | -8.72886 | 30301 ft | 389 kts | 319° |
| 2026-04-27 14:04 | 62.88281 | -8.79312 | 30311 ft | 396 kts | 318° |
| 2026-04-27 14:05 | 62.92518 | -8.87197 | 30303 ft | 403 kts | 318° |
| 2026-04-27 14:05 | 62.96819 | -8.95235 | 30301 ft | 408 kts | 318° |
| 2026-04-27 14:06 | 63.01159 | -9.03379 | 30291 ft | 413 kts | 318° |
| 2026-04-27 14:06 | 63.05555 | -9.11643 | 30285 ft | 417 kts | 317° |
| 2026-04-27 14:07 | 63.09981 | -9.20006 | 30290 ft | 421 kts | 317° |
| 2026-04-27 14:07 | 63.14420 | -9.28423 | 30304 ft | 424 kts | 317° |
| 2026-04-27 14:08 | 63.18907 | -9.36959 | 30288 ft | 427 kts | 317° |
| 2026-04-27 14:08 | 63.23417 | -9.45583 | 30279 ft | 429 kts | 317° |
| 2026-04-27 14:09 | 63.27943 | -9.54273 | 30274 ft | 431 kts | 317° |
| 2026-04-27 14:09 | 63.32477 | -9.63014 | 30272 ft | 432 kts | 317° |
| 2026-04-27 14:10 | 63.37021 | -9.71811 | 30272 ft | 433 kts | 316° |
| 2026-04-27 14:10 | 63.41570 | -9.80648 | 30285 ft | 434 kts | 316° |
| 2026-04-27 14:11 | 63.46117 | -9.89507 | 30265 ft | 434 kts | 316° |
| 2026-04-27 14:11 | 63.50664 | -9.98413 | 30262 ft | 435 kts | 316° |
| 2026-04-27 14:12 | 63.55182 | -10.07294 | 30247 ft | 435 kts | 316° |
| 2026-04-27 14:12 | 63.59733 | -10.16277 | 30257 ft | 436 kts | 316° |
| 2026-04-27 14:13 | 63.64288 | -10.25310 | 30248 ft | 437 kts | 316° |
| 2026-04-27 14:13 | 63.68851 | -10.34391 | 30270 ft | 438 kts | 315° |
| 2026-04-27 14:14 | 63.73420 | -10.43514 | 30242 ft | 438 kts | 315° |
| 2026-04-27 14:14 | 63.77979 | -10.52661 | 30240 ft | 439 kts | 315° |
| 2026-04-27 14:15 | 63.82542 | -10.61857 | 30238 ft | 439 kts | 315° |
| 2026-04-27 14:15 | 63.87094 | -10.71068 | 30227 ft | 439 kts | 315° |
| 2026-04-27 14:16 | 63.91638 | -10.80302 | 30227 ft | 439 kts | 315° |
| 2026-04-27 14:16 | 63.96188 | -10.89585 | 30248 ft | 439 kts | 315° |
| 2026-04-27 14:17 | 64.00703 | -10.98832 | 30224 ft | 439 kts | 314° |
| 2026-04-27 14:17 | 64.05141 | -11.08357 | 30193 ft | 434 kts | 305° |
| 2026-04-27 14:17 | 64.06608 | -11.14287 | 30220 ft | 428 kts | 288° |
| 2026-04-27 14:18 | 64.07593 | -11.20693 | 30224 ft | 429 kts | 294° |
| 2026-04-27 14:18 | 64.11099 | -11.31820 | 30227 ft | 433 kts | 306° |
| 2026-04-27 14:19 | 64.14977 | -11.42439 | 30202 ft | 435 kts | 307° |
| 2026-04-27 14:19 | 64.18694 | -11.53337 | 30189 ft | 433 kts | 301° |
| 2026-04-27 14:20 | 64.22108 | -11.64734 | 30189 ft | 433 kts | 302° |
| 2026-04-27 14:20 | 64.25556 | -11.76201 | 30190 ft | 434 kts | 302° |
| 2026-04-27 14:21 | 64.28955 | -11.87566 | 30167 ft | 434 kts | 302° |
| 2026-04-27 14:21 | 64.32369 | -11.99034 | 30168 ft | 434 kts | 302° |
| 2026-04-27 14:22 | 64.35777 | -12.10538 | 30171 ft | 434 kts | 301° |
| 2026-04-27 14:22 | 64.38932 | -12.21245 | 30180 ft | 435 kts | 301° |
| 2026-04-27 14:23 | 64.42334 | -12.32845 | 30166 ft | 436 kts | 301° |
| 2026-04-27 14:23 | 64.45732 | -12.44491 | 30193 ft | 436 kts | 301° |
| 2026-04-27 14:24 | 64.49099 | -12.56094 | 30162 ft | 436 kts | 301° |
| 2026-04-27 14:24 | 64.52479 | -12.67796 | 30156 ft | 436 kts | 301° |
| 2026-04-27 14:25 | 64.55842 | -12.79506 | 30142 ft | 435 kts | 301° |
| 2026-04-27 14:25 | 64.59192 | -12.91231 | 30143 ft | 435 kts | 300° |
| 2026-04-27 14:26 | 64.62539 | -13.02997 | 30131 ft | 435 kts | 300° |
| 2026-04-27 14:26 | 64.65869 | -13.14792 | 30146 ft | 436 kts | 300° |
| 2026-04-27 14:27 | 64.69204 | -13.26639 | 30133 ft | 437 kts | 300° |
| 2026-04-27 14:27 | 64.72472 | -13.38310 | 30109 ft | 415 kts | 299° |
| 2026-04-27 14:28 | 64.75672 | -13.49831 | 30115 ft | 430 kts | 299° |
| 2026-04-27 14:28 | 64.78916 | -13.61526 | 30100 ft | 428 kts | 299° |
| 2026-04-27 14:29 | 64.82174 | -13.73362 | 30110 ft | 430 kts | 299° |
| 2026-04-27 14:29 | 64.85407 | -13.85158 | 30090 ft | 429 kts | 299° |
| 2026-04-27 14:30 | 64.88624 | -13.96967 | 30088 ft | 429 kts | 298° |
| 2026-04-27 14:30 | 64.91857 | -14.08890 | 30087 ft | 435 kts | 297° |
| 2026-04-27 14:31 | 64.95105 | -14.20930 | 30086 ft | 432 kts | 297° |
| 2026-04-27 14:31 | 64.98297 | -14.32848 | 30082 ft | 430 kts | 297° |
| 2026-04-27 14:32 | 65.01502 | -14.44853 | 30105 ft | 432 kts | 297° |
| 2026-04-27 14:32 | 65.04688 | -14.56866 | 30046 ft | 430 kts | 297° |
| 2026-04-27 14:33 | 65.07866 | -14.68909 | 30028 ft | 431 kts | 297° |
| 2026-04-27 14:33 | 65.11019 | -14.80925 | 30022 ft | 431 kts | 297° |
| 2026-04-27 14:34 | 65.14194 | -14.93091 | 29991 ft | 429 kts | 297° |
| 2026-04-27 14:34 | 65.17236 | -15.04789 | 29882 ft | 405 kts | 296° |
| 2026-04-27 14:34 | 65.18690 | -15.10408 | 29561 ft | 392 kts | 295° |
| 2026-04-27 14:35 | 65.20089 | -15.15861 | 29110 ft | 381 kts | 295° |
| 2026-04-27 14:35 | 65.21463 | -15.21207 | 28344 ft | 377 kts | 295° |
| 2026-04-27 14:35 | 65.22833 | -15.26549 | 27285 ft | 380 kts | 295° |
| 2026-04-27 14:35 | 65.24220 | -15.31961 | 26157 ft | 385 kts | 295° |
| 2026-04-27 14:36 | 65.25627 | -15.37463 | 25016 ft | 391 kts | 296° |
| 2026-04-27 14:36 | 65.27048 | -15.43034 | 23872 ft | 396 kts | 296° |
| 2026-04-27 14:36 | 65.28490 | -15.48706 | 22584 ft | 401 kts | 296° |
| 2026-04-27 14:36 | 65.29937 | -15.54404 | 21585 ft | 398 kts | 296° |
| 2026-04-27 14:37 | 65.31334 | -15.59910 | 21281 ft | 377 kts | 295° |
| 2026-04-27 14:37 | 65.32654 | -15.65151 | 20949 ft | 359 kts | 295° |
| 2026-04-27 14:37 | 65.33909 | -15.70160 | 20614 ft | 343 kts | 295° |
| 2026-04-27 14:37 | 65.35109 | -15.74944 | 20287 ft | 328 kts | 295° |
| 2026-04-27 14:38 | 65.36265 | -15.79550 | 19940 ft | 316 kts | 294° |
| 2026-04-27 14:38 | 65.37373 | -15.83985 | 19590 ft | 305 kts | 294° |
| 2026-04-27 14:38 | 65.38444 | -15.88279 | 19272 ft | 293 kts | 294° |
| 2026-04-27 14:38 | 65.39468 | -15.92385 | 19010 ft | 281 kts | 293° |
| 2026-04-27 14:39 | 65.40448 | -15.96327 | 18724 ft | 270 kts | 293° |
| 2026-04-27 14:39 | 65.41398 | -16.00154 | 18351 ft | 266 kts | 292° |
| 2026-04-27 14:39 | 65.42334 | -16.03955 | 17907 ft | 263 kts | 292° |
| 2026-04-27 14:39 | 65.43263 | -16.07714 | 17386 ft | 260 kts | 292° |
| 2026-04-27 14:40 | 65.44190 | -16.11442 | 16847 ft | 259 kts | 292° |
| 2026-04-27 14:40 | 65.45104 | -16.15149 | 16359 ft | 257 kts | 291° |
| 2026-04-27 14:40 | 65.46010 | -16.18841 | 15840 ft | 255 kts | 291° |
| 2026-04-27 14:40 | 65.46908 | -16.22501 | 15347 ft | 253 kts | 291° |
| 2026-04-27 14:41 | 65.47799 | -16.26129 | 14866 ft | 251 kts | 291° |
| 2026-04-27 14:41 | 65.48681 | -16.29728 | 14392 ft | 249 kts | 291° |
| 2026-04-27 14:41 | 65.49553 | -16.33296 | 13921 ft | 247 kts | 291° |
| 2026-04-27 14:41 | 65.50450 | -16.37013 | 13635 ft | 260 kts | 291° |
| 2026-04-27 14:42 | 65.51359 | -16.40701 | 13485 ft | 251 kts | 291° |
| 2026-04-27 14:42 | 65.52231 | -16.44245 | 13402 ft | 243 kts | 291° |
| 2026-04-27 14:42 | 65.53081 | -16.47780 | 13391 ft | 244 kts | 290° |
| 2026-04-27 14:42 | 65.53933 | -16.51333 | 13390 ft | 246 kts | 291° |
| 2026-04-27 14:43 | 65.54797 | -16.54897 | 13388 ft | 246 kts | 291° |
| 2026-04-27 14:43 | 65.55663 | -16.58449 | 13380 ft | 245 kts | 291° |
| 2026-04-27 14:43 | 65.56519 | -16.61994 | 13387 ft | 244 kts | 291° |
| 2026-04-27 14:43 | 65.57087 | -16.64358 | 13346 ft | 245 kts | 291° |
| 2026-04-27 14:44 | 65.57940 | -16.67916 | 13373 ft | 245 kts | 291° |
| 2026-04-27 14:44 | 65.58797 | -16.71483 | 13439 ft | 243 kts | 291° |
| 2026-04-27 14:44 | 65.59637 | -16.74963 | 13600 ft | 241 kts | 290° |
| 2026-04-27 14:44 | 65.60486 | -16.78552 | 13317 ft | 252 kts | 291° |
| 2026-04-27 14:45 | 65.61364 | -16.82221 | 12906 ft | 250 kts | 291° |
| 2026-04-27 14:45 | 65.62236 | -16.85833 | 12426 ft | 249 kts | 291° |
| 2026-04-27 14:45 | 65.63106 | -16.89503 | 11934 ft | 253 kts | 291° |
| 2026-04-27 14:45 | 65.63984 | -16.93204 | 11461 ft | 254 kts | 291° |
| 2026-04-27 14:46 | 65.64867 | -16.96915 | 10966 ft | 253 kts | 291° |
| 2026-04-27 14:46 | 65.65745 | -17.00613 | 10480 ft | 252 kts | 291° |
| 2026-04-27 14:46 | 65.66613 | -17.04283 | 9993 ft | 250 kts | 291° |
| 2026-04-27 14:46 | 65.67477 | -17.07944 | 9469 ft | 249 kts | 291° |
| 2026-04-27 14:47 | 65.68322 | -17.11532 | 8933 ft | 248 kts | 291° |
| 2026-04-27 14:47 | 65.69174 | -17.15154 | 8427 ft | 248 kts | 291° |
| 2026-04-27 14:47 | 65.70027 | -17.18777 | 7965 ft | 246 kts | 291° |
| 2026-04-27 14:47 | 65.70872 | -17.22337 | 7554 ft | 243 kts | 290° |
| 2026-04-27 14:48 | 65.71701 | -17.25904 | 7142 ft | 241 kts | 289° |
| 2026-04-27 14:48 | 65.73330 | -17.32923 | 6539 ft | 239 kts | 289° |
| 2026-04-27 14:48 | 65.74146 | -17.36387 | 6429 ft | 229 kts | 290° |
| 2026-04-27 14:49 | 65.74916 | -17.39634 | 6347 ft | 213 kts | 288° |
| 2026-04-27 14:49 | 65.75608 | -17.42593 | 6254 ft | 190 kts | 287° |
| 2026-04-27 14:49 | 65.76239 | -17.45411 | 6035 ft | 206 kts | 287° |
| 2026-04-27 14:49 | 65.76959 | -17.48691 | 5882 ft | 223 kts | 290° |
| 2026-04-27 14:50 | 65.77747 | -17.51945 | 5719 ft | 223 kts | 291° |
| 2026-04-27 14:50 | 65.78527 | -17.55200 | 5677 ft | 218 kts | 290° |
| 2026-04-27 14:50 | 65.79268 | -17.58439 | 5778 ft | 222 kts | 289° |
| 2026-04-27 14:50 | 65.80019 | -17.61750 | 5862 ft | 229 kts | 289° |
| 2026-04-27 14:51 | 65.80803 | -17.65304 | 5920 ft | 238 kts | 285° |
| 2026-04-27 14:51 | 65.81064 | -17.69102 | 5901 ft | 225 kts | 263° |
| 2026-04-27 14:51 | 65.81428 | -17.72919 | 5869 ft | 245 kts | 289° |
| 2026-04-27 14:51 | 65.82285 | -17.76368 | 5862 ft | 222 kts | 293° |
| 2026-04-27 14:52 | 65.83098 | -17.79437 | 5785 ft | 220 kts | 292° |
| 2026-04-27 14:52 | 65.83641 | -17.82820 | 5762 ft | 209 kts | 276° |
| 2026-04-27 14:52 | 65.83972 | -17.86246 | 5591 ft | 210 kts | 277° |
| 2026-04-27 14:52 | 65.84558 | -17.89622 | 5377 ft | 217 kts | 287° |
| 2026-04-27 14:53 | 65.85221 | -17.92952 | 5098 ft | 221 kts | 287° |
| 2026-04-27 14:53 | 65.85669 | -17.96464 | 4702 ft | 213 kts | 270° |
| 2026-04-27 14:53 | 65.85675 | -18.00046 | 4351 ft | 215 kts | 261° |
| 2026-04-27 14:53 | 65.85435 | -18.03608 | 4115 ft | 208 kts | 248° |
| 2026-04-27 14:54 | 65.84936 | -18.06932 | 4076 ft | 209 kts | 245° |
| 2026-04-27 14:54 | 65.84341 | -18.10133 | 3982 ft | 205 kts | 230° |
| 2026-04-27 14:54 | 65.83165 | -18.11986 | 3961 ft | 206 kts | 195° |
| 2026-04-27 14:54 | 65.81731 | -18.12024 | 3563 ft | 200 kts | 177° |
| 2026-04-27 14:55 | 65.80416 | -18.11669 | 3187 ft | 182 kts | 174° |
| 2026-04-27 14:55 | 65.79227 | -18.11225 | 2902 ft | 164 kts | 174° |
| 2026-04-27 14:55 | 65.78200 | -18.10857 | 2720 ft | 134 kts | 174° |
| 2026-04-27 14:55 | 65.77340 | -18.10558 | 2587 ft | 120 kts | 176° |
| 2026-04-27 14:56 | 65.76495 | -18.10330 | 2458 ft | 122 kts | 176° |
| 2026-04-27 14:56 | 65.75653 | -18.10097 | 2255 ft | 125 kts | 174° |
| 2026-04-27 14:56 | 65.74739 | -18.09826 | 1988 ft | 133 kts | 172° |
| 2026-04-27 14:56 | 65.73859 | -18.09529 | 1649 ft | 129 kts | 169° |
| 2026-04-27 14:57 | 65.72962 | -18.09200 | 1427 ft | 132 kts | 169° |
| 2026-04-27 14:57 | 65.72035 | -18.08865 | 1209 ft | 131 kts | 171° |
| 2026-04-27 14:57 | 65.71155 | -18.08593 | 1001 ft | 122 kts | 172° |
| 2026-04-27 14:57 | 65.70322 | -18.08371 | 799 ft | 124 kts | 171° |
| 2026-04-27 14:58 | 65.69472 | -18.08128 | 656 ft | 121 kts | 170° |
| 2026-04-27 14:58 | 65.68658 | -18.07821 | 456 ft | 114 kts | 169° |
| 2026-04-27 14:58 | 65.67890 | -18.07623 | 308 ft | 113 kts | 175° |
| 2026-04-27 14:58 | 65.67104 | -18.07480 | 124 ft | 112 kts | 174° |
| 2026-04-27 14:59 | 65.66336 | -18.07333 | 28 ft | 102 kts | 175° |
| 2026-04-27 14:59 | 65.66013 | -18.07270 | 25 ft | 1 kts | 175° |
| 2026-04-27 14:59 | 65.66012 | -18.07270 | 25 ft | 0 kts | 175° |
| 2026-04-27 14:59 | 65.65860 | -18.07241 | 28 ft | 39 kts | 175° |
| 2026-04-27 15:00 | 65.65642 | -18.07201 | 29 ft | 27 kts | 175° |
| 2026-04-27 15:00 | 65.65492 | -18.07173 | 26 ft | 5 kts | 186° |
| 2026-04-27 15:00 | 65.65479 | -18.07198 | 26 ft | 1 kts | 242° |
| 2026-04-27 15:00 | 65.65479 | -18.07210 | 25 ft | 1 kts | 268° |
| 2026-04-27 15:01 | 65.65479 | -18.07291 | 27 ft | 1 kts | 268° |
| 2026-04-27 15:01 | 65.65478 | -18.07343 | 25 ft | 2 kts | 267° |
| 2026-04-27 15:01 | 65.65476 | -18.07358 | 25 ft | 2 kts | 249° |
| 2026-04-27 15:01 | 65.65467 | -18.07370 | 28 ft | 3 kts | 184° |
| 2026-04-27 15:02 | 65.65412 | -18.07364 | 25 ft | 11 kts | 183° |
| 2026-04-27 15:02 | 65.65389 | -18.07444 | 28 ft | 6 kts | 283° |
| 2026-04-27 15:02 | 65.65401 | -18.07475 | 25 ft | 2 kts | 348° |
| 2026-04-27 15:02 | 65.65408 | -18.07471 | 30 ft | 0 kts | 22° |